Weather History for Sanford, ME

Change the Weather History Date:

Saturday, December 22, 2012

  Actual Average Record
Temperature  
Mean Temperature 32 °F -  
Max Temperature 39 °F 34 °F 53 °F (1998)
Min Temperature 26 °F 16 °F 1 °F (1997)
Degree Days  
Heating Degree Days 32    
Moisture  
Dew Point 32 °F    
Average Humidity 95    
Maximum Humidity 100    
Minimum Humidity 64    
Precipitation  
Precipitation 0.00 in - - ()
Sea Level Pressure  
Sea Level Pressure 29.31 in    
Wind  
Wind Speed 11 mph (WSW)    
Max Wind Speed 22 mph    
Max Gust Speed 33 mph    
Visibility 10 miles    
Events      
Averages and records for this station are not official NWS values.
T = Trace of Precipitation, MM = Missing Value Source: NWS Daily Summary

Daily Weather History Graph

Daily Weather History Graph

Search for Another Location

Airport:

Trip Planner

Search our weather history database for the weather conditions in past years. The results will help you decide how hot, cold, wet, or windy it might be!

Date:

Astronomy

Dec. 22, 2012 Rise Set
Actual Time 7:12 AM EST 4:10 PM EST
Civil Twilight 6:40 AM EST 4:43 PM EST
Nautical Twilight 6:04 AM EST 5:19 PM EST
Astronomical Twilight 5:29 AM EST 5:54 PM EST
Moon 12:31 PM EST (12/22) 1:49 AM EST (12/22)
Length of Visible Light 10h 03m
Length of Day
8h 57m
Waxing Gibbous, 73% of the Moon is Illuminated
Dec 22
Waxing Gibbous
Dec 28
Full
Jan 4
Last Quarter
Jan 11
New
Jan 18
First Quarter

Hourly Weather History & Observations

Time (EST) Temp. Windchill Dew Point Humidity Pressure Visibility Wind Dir Wind Speed Gust Speed Precip Events Conditions
12:15 AM 37.4 °F 30.8 °F 37.4 °F 100% 29.15 in 10.0 mi SW 9.2 mph - N/A   Overcast
12:35 AM 37.4 °F 30.3 °F 37.4 °F 100% 29.16 in 10.0 mi SW 10.4 mph 16.1 mph N/A   Overcast
12:55 AM 37.4 °F 30.3 °F 37.4 °F 100% 29.16 in 10.0 mi SW 10.4 mph - N/A   Overcast
1:15 AM 37.4 °F 30.8 °F 37.4 °F 100% 29.16 in 10.0 mi SW 9.2 mph - N/A   Mostly Cloudy
1:35 AM 37.4 °F 30.8 °F 37.4 °F 100% 29.16 in 10.0 mi SW 9.2 mph - N/A   Mostly Cloudy
1:55 AM 37.4 °F 31.4 °F 37.4 °F 100% 29.17 in 10.0 mi SSW 8.1 mph - N/A   Mostly Cloudy
2:15 AM 37.4 °F 31.4 °F 35.6 °F 93% 29.18 in 10.0 mi SSW 8.1 mph 16.1 mph N/A   Overcast
2:35 AM 37.4 °F 29.8 °F 37.4 °F 100% 29.18 in 10.0 mi SSW 11.5 mph - N/A   Overcast
2:55 AM 35.6 °F 28.6 °F 35.6 °F 100% 29.18 in 10.0 mi SSW 9.2 mph - N/A   Overcast
3:15 AM 35.6 °F 29.9 °F 35.6 °F 100% 29.18 in 10.0 mi SSW 6.9 mph - N/A   Scattered Clouds
3:35 AM 35.6 °F 29.2 °F 33.8 °F 93% 29.18 in 10.0 mi SSW 8.1 mph - N/A   Clear
3:55 AM 35.6 °F 29.9 °F 33.8 °F 93% 29.19 in 10.0 mi SSW 6.9 mph - N/A   Clear
4:15 AM 33.8 °F 27.7 °F 32.0 °F 93% 29.19 in 10.0 mi SSW 6.9 mph - N/A   Clear
4:35 AM 33.8 °F 28.6 °F 33.8 °F 100% 29.20 in 10.0 mi SSW 5.8 mph - N/A   Clear
4:55 AM 33.8 °F 27.7 °F 33.8 °F 100% 29.20 in 10.0 mi SSW 6.9 mph - N/A   Partly Cloudy
5:15 AM 33.8 °F 28.6 °F 33.8 °F 100% 29.21 in 10.0 mi SSW 5.8 mph - N/A   Partly Cloudy
5:35 AM 33.8 °F 27.7 °F 33.8 °F 100% 29.22 in 10.0 mi SSW 6.9 mph - N/A   Mostly Cloudy
5:55 AM 33.8 °F 28.6 °F 33.8 °F 100% 29.23 in 10.0 mi SW 5.8 mph - N/A   Overcast
6:35 AM 33.8 °F 29.6 °F 33.8 °F 100% 29.23 in 10.0 mi SSW 4.6 mph - N/A   Overcast
6:55 AM 33.8 °F 27.0 °F 33.8 °F 100% 29.23 in 10.0 mi SW 8.1 mph - N/A   Overcast
7:15 AM 33.8 °F 27.0 °F 32.0 °F 93% 29.24 in 10.0 mi SW 8.1 mph - N/A   Overcast
7:35 AM 33.8 °F 27.7 °F 33.8 °F 100% 29.24 in 10.0 mi SW 6.9 mph - N/A   Overcast
7:55 AM 33.8 °F 27.7 °F 33.8 °F 100% 29.24 in 10.0 mi SSW 6.9 mph - N/A   Mostly Cloudy
8:15 AM 33.8 °F 28.6 °F 32.0 °F 93% 29.25 in 10.0 mi SSW 5.8 mph - N/A   Mostly Cloudy
8:35 AM 33.8 °F 27.7 °F 33.8 °F 100% 29.26 in 10.0 mi SW 6.9 mph - N/A   Scattered Clouds
8:55 AM 35.6 °F 29.2 °F 35.6 °F 100% 29.26 in 10.0 mi SSW 8.1 mph - N/A   Scattered Clouds
9:15 AM 35.6 °F 28.6 °F 35.6 °F 100% 29.26 in 10.0 mi SW 9.2 mph - N/A   Overcast
9:35 AM 37.4 °F 29.8 °F 35.6 °F 93% 29.26 in 10.0 mi SW 11.5 mph 17.3 mph N/A   Overcast
9:55 AM 37.4 °F 30.3 °F 37.4 °F 100% 29.27 in 10.0 mi SW 10.4 mph - N/A   Overcast
10:15 AM 37.4 °F 29.3 °F 37.4 °F 100% 29.26 in 10.0 mi WSW 12.7 mph 16.1 mph N/A   Overcast
10:35 AM 37.4 °F 29.8 °F 37.4 °F 100% 29.27 in 10.0 mi WSW 11.5 mph 17.3 mph N/A   Overcast
10:55 AM 39.2 °F 31.2 °F 39.2 °F 100% 29.26 in 10.0 mi WSW 13.8 mph 18.4 mph N/A   Overcast
11:15 AM 39.2 °F 31.6 °F 37.4 °F 93% 29.26 in 10.0 mi WSW 12.7 mph - N/A   Overcast
11:35 AM 39.2 °F 31.6 °F 39.2 °F 100% 29.26 in 10.0 mi WSW 12.7 mph 18.4 mph N/A   Overcast
11:55 AM 39.2 °F 32.5 °F 39.2 °F 100% 29.26 in 10.0 mi WSW 10.4 mph 21.9 mph N/A   Mostly Cloudy
12:15 PM 37.4 °F 28.2 °F 37.4 °F 100% 29.26 in 10.0 mi WSW 16.1 mph 25.3 mph N/A   Overcast
12:35 PM 35.6 °F 25.9 °F 35.6 °F 100% 29.26 in 7.0 mi WSW 16.1 mph 28.8 mph N/A   Overcast
12:55 PM 35.6 °F 27.1 °F 35.6 °F 100% 29.27 in 10.0 mi WSW 12.7 mph 24.2 mph N/A   Overcast
1:15 PM 35.6 °F 26.6 °F 35.6 °F 100% 29.27 in 10.0 mi West 13.8 mph 24.2 mph N/A   Overcast
1:35 PM 35.6 °F 26.2 °F 35.6 °F 100% 29.28 in 10.0 mi West 15.0 mph 21.9 mph N/A   Overcast
1:55 PM 35.6 °F 27.1 °F 35.6 °F 100% 29.28 in 10.0 mi West 12.7 mph - N/A   Overcast
2:15 PM 35.6 °F 26.6 °F 33.8 °F 93% 29.30 in 10.0 mi West 13.8 mph 23.0 mph N/A   Overcast
2:35 PM 33.8 °F 22.5 °F 33.8 °F 100% 29.31 in 10.0 mi West 19.6 mph 26.5 mph N/A   Overcast
2:55 PM 33.8 °F 23.9 °F 33.8 °F 100% 29.31 in 10.0 mi West 15.0 mph 25.3 mph N/A   Overcast
3:15 PM 33.8 °F 22.8 °F 33.8 °F 100% 29.32 in 10.0 mi West 18.4 mph 25.3 mph N/A   Mostly Cloudy
3:35 PM 33.8 °F 23.9 °F 30.2 °F 87% 29.33 in 10.0 mi West 15.0 mph 20.7 mph N/A   Clear
3:55 PM 32.0 °F 20.8 °F 30.2 °F 93% 29.34 in 10.0 mi West 17.3 mph 26.5 mph N/A   Mostly Cloudy
4:15 PM 30.2 °F 20.2 °F 30.2 °F 100% 29.36 in 10.0 mi West 12.7 mph 20.7 mph N/A   Mostly Cloudy
4:35 PM 30.2 °F 17.4 °F 30.2 °F 100% 29.36 in 10.0 mi West 20.7 mph 26.5 mph N/A   Mostly Cloudy
4:55 PM 30.2 °F 18.9 °F 30.2 °F 100% 29.38 in 10.0 mi West 16.1 mph 29.9 mph N/A   Overcast
5:15 PM 30.2 °F 18.1 °F 28.4 °F 93% 29.39 in 10.0 mi West 18.4 mph 26.5 mph N/A   Mostly Cloudy
5:35 PM 30.2 °F 17.4 °F 26.6 °F 86% 29.40 in 10.0 mi WNW 20.7 mph 32.2 mph N/A   Scattered Clouds
5:55 PM 28.4 °F 15.8 °F - N/A% 29.41 in 10.0 mi West 18.4 mph 26.5 mph N/A   Partly Cloudy
6:15 PM 28.4 °F 16.6 °F 28.4 °F 100% 29.42 in 10.0 mi West 16.1 mph 24.2 mph N/A   Clear
6:35 PM 28.4 °F 15.4 °F 23.0 °F 80% 29.43 in 10.0 mi West 19.6 mph 29.9 mph N/A   Mostly Cloudy
6:55 PM 28.4 °F 15.8 °F 28.4 °F 100% 29.44 in 10.0 mi WNW 18.4 mph 25.3 mph N/A   Overcast
7:15 PM 28.4 °F 16.6 °F 28.4 °F 100% 29.45 in 10.0 mi WNW 16.1 mph 29.9 mph N/A   Overcast
7:35 PM 28.4 °F 14.7 °F 19.4 °F 69% 29.46 in 10.0 mi WNW 21.9 mph 31.1 mph N/A   Mostly Cloudy
7:55 PM 28.4 °F 15.8 °F - N/A% 29.47 in 10.0 mi WNW 18.4 mph 29.9 mph N/A   Mostly Cloudy
8:15 PM 26.6 °F 13.1 °F 23.0 °F 86% 29.48 in 10.0 mi West 19.6 mph 31.1 mph N/A   Overcast
8:35 PM 26.6 °F 13.8 °F 23.0 °F 86% 29.49 in 10.0 mi WNW 17.3 mph 33.4 mph N/A   Overcast
8:55 PM 26.6 °F 13.4 °F - N/A% 29.50 in 10.0 mi WNW 18.4 mph 29.9 mph N/A   Scattered Clouds
9:15 PM 26.6 °F 15.7 °F 15.8 °F 64% 29.51 in 10.0 mi West 12.7 mph 28.8 mph N/A   Clear
9:35 PM 26.6 °F 12.4 °F - N/A% 29.51 in 10.0 mi West 21.9 mph 31.1 mph N/A   Partly Cloudy
9:55 PM 26.6 °F 15.7 °F 17.6 °F 69% 29.52 in 10.0 mi WNW 12.7 mph 23.0 mph N/A   Scattered Clouds
10:15 PM 26.6 °F 14.3 °F 26.6 °F 100% 29.53 in 10.0 mi West 16.1 mph 25.3 mph N/A   Partly Cloudy
10:35 PM 26.6 °F 16.2 °F 23.0 °F 86% 29.53 in 10.0 mi WNW 11.5 mph 19.6 mph N/A   Scattered Clouds
10:55 PM 26.6 °F 14.3 °F 21.2 °F 80% 29.53 in 10.0 mi WNW 16.1 mph 25.3 mph N/A   Scattered Clouds
11:15 PM 26.6 °F 15.2 °F 26.6 °F 100% 29.54 in 10.0 mi West 13.8 mph 26.5 mph N/A   Scattered Clouds
11:35 PM 26.6 °F 12.4 °F 15.8 °F 64% 29.53 in 10.0 mi WNW 21.9 mph 32.2 mph N/A   Partly Cloudy
11:55 PM 26.6 °F 14.7 °F - N/A% 29.54 in 10.0 mi West 15.0 mph 27.6 mph N/A   Mostly Cloudy